sensor_id;sensor_type;location;lat;lon;timestamp;P1;durP1;ratioP1;P2;durP2;ratioP2
64367;SDS011;50692;53.314;-6.300;2023-08-08T00:01:43;3.75;;;2.25;;
64367;SDS011;50692;53.314;-6.300;2023-08-08T00:04:29;4.30;;;2.20;;
64367;SDS011;50692;53.314;-6.300;2023-08-08T00:07:15;4.50;;;2.00;;
64367;SDS011;50692;53.314;-6.300;2023-08-08T00:10:01;2.50;;;2.00;;
64367;SDS011;50692;53.314;-6.300;2023-08-08T00:12:47;3.60;;;2.15;;
64367;SDS011;50692;53.314;-6.300;2023-08-08T00:15:33;3.60;;;2.00;;
64367;SDS011;50692;53.314;-6.300;2023-08-08T00:18:19;3.30;;;2.05;;
64367;SDS011;50692;53.314;-6.300;2023-08-08T00:21:04;2.58;;;1.90;;
64367;SDS011;50692;53.314;-6.300;2023-08-08T00:23:50;2.70;;;1.95;;
64367;SDS011;50692;53.314;-6.300;2023-08-08T00:26:36;1.88;;;1.60;;
64367;SDS011;50692;53.314;-6.300;2023-08-08T00:29:22;4.70;;;2.10;;
64367;SDS011;50692;53.314;-6.300;2023-08-08T00:32:08;2.25;;;1.70;;
64367;SDS011;50692;53.314;-6.300;2023-08-08T00:34:53;1.98;;;1.63;;
64367;SDS011;50692;53.314;-6.300;2023-08-08T00:37:39;2.20;;;1.73;;
64367;SDS011;50692;53.314;-6.300;2023-08-08T00:40:25;4.57;;;2.08;;
64367;SDS011;50692;53.314;-6.300;2023-08-08T00:43:11;3.78;;;2.03;;
64367;SDS011;50692;53.314;-6.300;2023-08-08T00:45:58;4.03;;;2.15;;
64367;SDS011;50692;53.314;-6.300;2023-08-08T00:48:44;2.90;;;2.00;;
64367;SDS011;50692;53.314;-6.300;2023-08-08T00:51:30;2.20;;;1.60;;
64367;SDS011;50692;53.314;-6.300;2023-08-08T00:54:16;3.38;;;2.10;;
64367;SDS011;50692;53.314;-6.300;2023-08-08T00:57:02;4.82;;;2.30;;
64367;SDS011;50692;53.314;-6.300;2023-08-08T00:59:48;3.63;;;2.33;;
64367;SDS011;50692;53.314;-6.300;2023-08-08T01:02:34;5.88;;;2.78;;
64367;SDS011;50692;53.314;-6.300;2023-08-08T01:05:20;4.32;;;3.05;;
64367;SDS011;50692;53.314;-6.300;2023-08-08T01:08:06;4.07;;;2.65;;
64367;SDS011;50692;53.314;-6.300;2023-08-08T01:10:53;3.03;;;2.40;;
64367;SDS011;50692;53.314;-6.300;2023-08-08T01:13:40;3.17;;;2.55;;
64367;SDS011;50692;53.314;-6.300;2023-08-08T01:16:26;3.33;;;2.20;;
64367;SDS011;50692;53.314;-6.300;2023-08-08T01:19:15;3.50;;;2.20;;
64367;SDS011;50692;53.314;-6.300;2023-08-08T01:22:19;4.18;;;2.83;;
64367;SDS011;50692;53.314;-6.300;2023-08-08T01:25:10;3.78;;;2.35;;
64367;SDS011;50692;53.314;-6.300;2023-08-08T01:27:56;4.00;;;2.67;;
64367;SDS011;50692;53.314;-6.300;2023-08-08T01:30:43;4.32;;;2.65;;
64367;SDS011;50692;53.314;-6.300;2023-08-08T01:33:29;4.15;;;2.70;;
64367;SDS011;50692;53.314;-6.300;2023-08-08T01:36:22;5.72;;;2.78;;
64367;SDS011;50692;53.314;-6.300;2023-08-08T01:39:15;3.53;;;2.53;;
64367;SDS011;50692;53.314;-6.300;2023-08-08T01:42:03;4.32;;;2.85;;
64367;SDS011;50692;53.314;-6.300;2023-08-08T01:44:53;5.43;;;3.33;;
64367;SDS011;50692;53.314;-6.300;2023-08-08T01:47:40;4.30;;;3.10;;
64367;SDS011;50692;53.314;-6.300;2023-08-08T01:50:26;3.47;;;3.00;;
64367;SDS011;50692;53.314;-6.300;2023-08-08T01:53:13;3.92;;;3.10;;
64367;SDS011;50692;53.314;-6.300;2023-08-08T01:55:58;5.47;;;3.38;;
64367;SDS011;50692;53.314;-6.300;2023-08-08T01:58:44;5.60;;;2.83;;
64367;SDS011;50692;53.314;-6.300;2023-08-08T02:01:30;4.15;;;2.90;;
64367;SDS011;50692;53.314;-6.300;2023-08-08T02:04:16;4.72;;;2.70;;
64367;SDS011;50692;53.314;-6.300;2023-08-08T02:07:02;4.00;;;2.70;;
64367;SDS011;50692;53.314;-6.300;2023-08-08T02:09:48;4.72;;;3.20;;
64367;SDS011;50692;53.314;-6.300;2023-08-08T02:12:36;5.32;;;2.97;;
64367;SDS011;50692;53.314;-6.300;2023-08-08T02:15:21;4.20;;;2.90;;
64367;SDS011;50692;53.314;-6.300;2023-08-08T02:18:07;4.95;;;3.03;;
64367;SDS011;50692;53.314;-6.300;2023-08-08T02:20:55;4.38;;;2.90;;
64367;SDS011;50692;53.314;-6.300;2023-08-08T02:23:40;3.78;;;2.60;;
64367;SDS011;50692;53.314;-6.300;2023-08-08T02:26:26;4.75;;;2.95;;
64367;SDS011;50692;53.314;-6.300;2023-08-08T02:29:12;3.90;;;2.65;;
64367;SDS011;50692;53.314;-6.300;2023-08-08T02:31:58;4.57;;;3.33;;
64367;SDS011;50692;53.314;-6.300;2023-08-08T02:34:44;5.30;;;3.13;;
64367;SDS011;50692;53.314;-6.300;2023-08-08T02:37:29;6.10;;;3.13;;
64367;SDS011;50692;53.314;-6.300;2023-08-08T02:40:15;4.88;;;2.70;;
64367;SDS011;50692;53.314;-6.300;2023-08-08T02:43:01;6.13;;;2.75;;
64367;SDS011;50692;53.314;-6.300;2023-08-08T02:45:47;3.95;;;3.13;;
64367;SDS011;50692;53.314;-6.300;2023-08-08T02:48:33;4.72;;;2.75;;
64367;SDS011;50692;53.314;-6.300;2023-08-08T02:51:18;3.78;;;2.40;;
64367;SDS011;50692;53.314;-6.300;2023-08-08T02:54:04;3.67;;;2.60;;
64367;SDS011;50692;53.314;-6.300;2023-08-08T02:56:50;3.85;;;2.53;;
64367;SDS011;50692;53.314;-6.300;2023-08-08T02:59:36;7.70;;;3.00;;
64367;SDS011;50692;53.314;-6.300;2023-08-08T03:02:22;3.67;;;2.60;;
64367;SDS011;50692;53.314;-6.300;2023-08-08T03:05:08;7.47;;;2.95;;
64367;SDS011;50692;53.314;-6.300;2023-08-08T03:07:54;3.45;;;2.60;;
64367;SDS011;50692;53.314;-6.300;2023-08-08T03:10:40;3.38;;;2.67;;
64367;SDS011;50692;53.314;-6.300;2023-08-08T03:13:26;6.47;;;2.80;;
64367;SDS011;50692;53.314;-6.300;2023-08-08T03:16:12;5.00;;;3.20;;
64367;SDS011;50692;53.314;-6.300;2023-08-08T03:18:58;5.40;;;2.70;;
64367;SDS011;50692;53.314;-6.300;2023-08-08T03:21:44;4.03;;;2.92;;
64367;SDS011;50692;53.314;-6.300;2023-08-08T03:24:29;4.43;;;2.70;;
64367;SDS011;50692;53.314;-6.300;2023-08-08T03:27:15;4.82;;;3.10;;
64367;SDS011;50692;53.314;-6.300;2023-08-08T03:30:01;4.03;;;2.83;;
64367;SDS011;50692;53.314;-6.300;2023-08-08T03:32:47;4.82;;;2.95;;
64367;SDS011;50692;53.314;-6.300;2023-08-08T03:35:33;3.95;;;2.95;;
64367;SDS011;50692;53.314;-6.300;2023-08-08T03:38:18;7.00;;;2.92;;
64367;SDS011;50692;53.314;-6.300;2023-08-08T03:41:05;5.07;;;2.80;;
64367;SDS011;50692;53.314;-6.300;2023-08-08T03:43:50;5.95;;;2.60;;
64367;SDS011;50692;53.314;-6.300;2023-08-08T03:46:36;4.80;;;2.90;;
64367;SDS011;50692;53.314;-6.300;2023-08-08T03:49:22;4.38;;;2.63;;
64367;SDS011;50692;53.314;-6.300;2023-08-08T03:52:08;4.05;;;3.00;;
64367;SDS011;50692;53.314;-6.300;2023-08-08T03:54:54;3.33;;;2.90;;
64367;SDS011;50692;53.314;-6.300;2023-08-08T03:57:39;4.07;;;2.95;;
64367;SDS011;50692;53.314;-6.300;2023-08-08T04:00:25;5.05;;;2.92;;
64367;SDS011;50692;53.314;-6.300;2023-08-08T04:03:14;4.03;;;2.63;;
64367;SDS011;50692;53.314;-6.300;2023-08-08T04:06:01;3.58;;;2.92;;
64367;SDS011;50692;53.314;-6.300;2023-08-08T04:08:47;5.95;;;2.95;;
64367;SDS011;50692;53.314;-6.300;2023-08-08T04:11:33;4.80;;;2.85;;
64367;SDS011;50692;53.314;-6.300;2023-08-08T04:14:21;4.30;;;3.10;;
64367;SDS011;50692;53.314;-6.300;2023-08-08T04:17:06;5.22;;;4.05;;
64367;SDS011;50692;53.314;-6.300;2023-08-08T04:19:52;4.70;;;3.47;;
64367;SDS011;50692;53.314;-6.300;2023-08-08T04:22:38;7.35;;;3.92;;
64367;SDS011;50692;53.314;-6.300;2023-08-08T04:25:24;4.78;;;3.58;;
64367;SDS011;50692;53.314;-6.300;2023-08-08T04:28:10;4.32;;;3.28;;
64367;SDS011;50692;53.314;-6.300;2023-08-08T04:30:55;4.18;;;3.10;;
64367;SDS011;50692;53.314;-6.300;2023-08-08T04:33:41;4.95;;;3.00;;
64367;SDS011;50692;53.314;-6.300;2023-08-08T04:36:27;4.65;;;2.90;;
64367;SDS011;50692;53.314;-6.300;2023-08-08T04:39:13;4.68;;;2.80;;
64367;SDS011;50692;53.314;-6.300;2023-08-08T04:41:59;4.45;;;2.90;;
64367;SDS011;50692;53.314;-6.300;2023-08-08T04:44:45;4.78;;;3.00;;
64367;SDS011;50692;53.314;-6.300;2023-08-08T04:47:31;4.10;;;2.65;;
64367;SDS011;50692;53.314;-6.300;2023-08-08T04:50:16;5.35;;;2.85;;
64367;SDS011;50692;53.314;-6.300;2023-08-08T04:53:02;4.70;;;3.13;;
64367;SDS011;50692;53.314;-6.300;2023-08-08T04:55:48;4.38;;;3.45;;
64367;SDS011;50692;53.314;-6.300;2023-08-08T04:58:34;4.75;;;3.50;;
64367;SDS011;50692;53.314;-6.300;2023-08-08T05:01:20;8.30;;;5.18;;
64367;SDS011;50692;53.314;-6.300;2023-08-08T05:04:07;7.97;;;4.70;;
64367;SDS011;50692;53.314;-6.300;2023-08-08T05:06:52;5.18;;;4.00;;
64367;SDS011;50692;53.314;-6.300;2023-08-08T05:09:38;4.55;;;3.80;;
64367;SDS011;50692;53.314;-6.300;2023-08-08T05:12:24;6.20;;;3.85;;
64367;SDS011;50692;53.314;-6.300;2023-08-08T05:15:10;6.15;;;3.70;;
64367;SDS011;50692;53.314;-6.300;2023-08-08T05:17:56;7.10;;;4.70;;
64367;SDS011;50692;53.314;-6.300;2023-08-08T05:20:41;5.55;;;3.60;;
64367;SDS011;50692;53.314;-6.300;2023-08-08T05:23:27;5.65;;;3.75;;
64367;SDS011;50692;53.314;-6.300;2023-08-08T05:26:14;4.40;;;3.55;;
64367;SDS011;50692;53.314;-6.300;2023-08-08T05:29:00;5.72;;;3.83;;
64367;SDS011;50692;53.314;-6.300;2023-08-08T05:31:46;5.40;;;3.42;;
64367;SDS011;50692;53.314;-6.300;2023-08-08T05:34:33;6.00;;;4.05;;
64367;SDS011;50692;53.314;-6.300;2023-08-08T05:37:19;7.35;;;4.80;;
64367;SDS011;50692;53.314;-6.300;2023-08-08T05:40:05;6.32;;;3.83;;
64367;SDS011;50692;53.314;-6.300;2023-08-08T05:42:51;7.10;;;3.90;;
64367;SDS011;50692;53.314;-6.300;2023-08-08T05:45:37;7.68;;;3.97;;
64367;SDS011;50692;53.314;-6.300;2023-08-08T05:48:23;7.40;;;4.05;;
64367;SDS011;50692;53.314;-6.300;2023-08-08T05:51:09;5.47;;;3.78;;
64367;SDS011;50692;53.314;-6.300;2023-08-08T05:53:55;7.40;;;4.15;;
64367;SDS011;50692;53.314;-6.300;2023-08-08T05:56:40;6.38;;;4.38;;
64367;SDS011;50692;53.314;-6.300;2023-08-08T05:59:26;7.35;;;4.68;;
64367;SDS011;50692;53.314;-6.300;2023-08-08T06:02:12;4.93;;;3.97;;
64367;SDS011;50692;53.314;-6.300;2023-08-08T06:04:58;5.50;;;4.22;;
64367;SDS011;50692;53.314;-6.300;2023-08-08T06:07:44;6.25;;;4.20;;
64367;SDS011;50692;53.314;-6.300;2023-08-08T06:10:30;5.38;;;3.63;;
64367;SDS011;50692;53.314;-6.300;2023-08-08T06:13:15;5.60;;;3.63;;
64367;SDS011;50692;53.314;-6.300;2023-08-08T06:16:01;6.57;;;4.00;;
64367;SDS011;50692;53.314;-6.300;2023-08-08T06:18:52;7.03;;;3.55;;
64367;SDS011;50692;53.314;-6.300;2023-08-08T06:21:38;8.95;;;4.07;;
64367;SDS011;50692;53.314;-6.300;2023-08-08T06:24:24;4.70;;;3.53;;
64367;SDS011;50692;53.314;-6.300;2023-08-08T06:27:09;6.07;;;3.38;;
64367;SDS011;50692;53.314;-6.300;2023-08-08T06:29:55;6.40;;;4.28;;
64367;SDS011;50692;53.314;-6.300;2023-08-08T06:32:41;7.72;;;4.43;;
64367;SDS011;50692;53.314;-6.300;2023-08-08T06:35:27;4.78;;;4.03;;
64367;SDS011;50692;53.314;-6.300;2023-08-08T06:38:13;5.10;;;3.60;;
64367;SDS011;50692;53.314;-6.300;2023-08-08T06:40:59;6.47;;;4.10;;
64367;SDS011;50692;53.314;-6.300;2023-08-08T06:43:46;4.65;;;3.58;;
64367;SDS011;50692;53.314;-6.300;2023-08-08T06:46:31;5.82;;;3.95;;
64367;SDS011;50692;53.314;-6.300;2023-08-08T06:49:17;5.68;;;3.63;;
64367;SDS011;50692;53.314;-6.300;2023-08-08T06:52:04;4.90;;;3.17;;
64367;SDS011;50692;53.314;-6.300;2023-08-08T06:54:50;5.13;;;3.00;;
64367;SDS011;50692;53.314;-6.300;2023-08-08T06:57:36;5.07;;;2.60;;
64367;SDS011;50692;53.314;-6.300;2023-08-08T07:00:22;6.03;;;2.63;;
64367;SDS011;50692;53.314;-6.300;2023-08-08T07:03:08;6.72;;;2.58;;
64367;SDS011;50692;53.314;-6.300;2023-08-08T07:05:54;3.72;;;2.55;;
64367;SDS011;50692;53.314;-6.300;2023-08-08T07:08:39;4.45;;;2.50;;
64367;SDS011;50692;53.314;-6.300;2023-08-08T07:11:25;4.38;;;2.70;;
64367;SDS011;50692;53.314;-6.300;2023-08-08T07:14:11;5.95;;;3.33;;
64367;SDS011;50692;53.314;-6.300;2023-08-08T07:16:57;4.88;;;2.80;;
64367;SDS011;50692;53.314;-6.300;2023-08-08T07:19:43;3.78;;;2.60;;
64367;SDS011;50692;53.314;-6.300;2023-08-08T07:22:30;4.90;;;2.55;;
64367;SDS011;50692;53.314;-6.300;2023-08-08T07:25:15;3.85;;;2.28;;
64367;SDS011;50692;53.314;-6.300;2023-08-08T07:28:01;4.80;;;2.45;;
64367;SDS011;50692;53.314;-6.300;2023-08-08T07:30:47;4.80;;;2.20;;
64367;SDS011;50692;53.314;-6.300;2023-08-08T07:33:33;4.97;;;2.53;;
64367;SDS011;50692;53.314;-6.300;2023-08-08T07:36:19;3.67;;;2.08;;
64367;SDS011;50692;53.314;-6.300;2023-08-08T07:39:05;3.50;;;2.42;;
64367;SDS011;50692;53.314;-6.300;2023-08-08T07:41:51;4.47;;;2.53;;
64367;SDS011;50692;53.314;-6.300;2023-08-08T07:44:37;5.00;;;2.65;;
64367;SDS011;50692;53.314;-6.300;2023-08-08T07:47:24;4.43;;;2.50;;
64367;SDS011;50692;53.314;-6.300;2023-08-08T07:50:10;2.92;;;2.22;;
64367;SDS011;50692;53.314;-6.300;2023-08-08T07:52:56;3.28;;;2.33;;
64367;SDS011;50692;53.314;-6.300;2023-08-08T07:55:42;3.45;;;2.20;;
64367;SDS011;50692;53.314;-6.300;2023-08-08T07:58:28;5.45;;;2.55;;
64367;SDS011;50692;53.314;-6.300;2023-08-08T08:01:14;7.07;;;2.78;;
64367;SDS011;50692;53.314;-6.300;2023-08-08T08:04:00;5.22;;;2.47;;
64367;SDS011;50692;53.314;-6.300;2023-08-08T08:06:45;3.53;;;2.10;;
64367;SDS011;50692;53.314;-6.300;2023-08-08T08:09:31;4.32;;;2.25;;
64367;SDS011;50692;53.314;-6.300;2023-08-08T08:12:17;4.65;;;2.10;;
64367;SDS011;50692;53.314;-6.300;2023-08-08T08:15:05;4.05;;;2.22;;
64367;SDS011;50692;53.314;-6.300;2023-08-08T08:17:51;6.13;;;3.22;;
64367;SDS011;50692;53.314;-6.300;2023-08-08T08:20:37;6.13;;;4.15;;
64367;SDS011;50692;53.314;-6.300;2023-08-08T08:23:23;4.00;;;2.15;;
64367;SDS011;50692;53.314;-6.300;2023-08-08T08:26:08;2.97;;;2.58;;
64367;SDS011;50692;53.314;-6.300;2023-08-08T08:28:54;4.45;;;2.38;;
64367;SDS011;50692;53.314;-6.300;2023-08-08T08:31:40;4.88;;;3.00;;
64367;SDS011;50692;53.314;-6.300;2023-08-08T08:34:27;3.42;;;2.60;;
64367;SDS011;50692;53.314;-6.300;2023-08-08T08:37:16;6.50;;;2.92;;
64367;SDS011;50692;53.314;-6.300;2023-08-08T08:40:02;5.32;;;2.72;;
64367;SDS011;50692;53.314;-6.300;2023-08-08T08:42:50;4.15;;;2.83;;
64367;SDS011;50692;53.314;-6.300;2023-08-08T08:45:36;3.05;;;2.13;;
64367;SDS011;50692;53.314;-6.300;2023-08-08T08:48:24;3.88;;;2.83;;
64367;SDS011;50692;53.314;-6.300;2023-08-08T08:51:10;3.67;;;2.97;;
64367;SDS011;50692;53.314;-6.300;2023-08-08T08:53:57;4.53;;;2.60;;
64367;SDS011;50692;53.314;-6.300;2023-08-08T08:56:44;5.22;;;3.33;;
64367;SDS011;50692;53.314;-6.300;2023-08-08T08:59:30;3.50;;;2.60;;
64367;SDS011;50692;53.314;-6.300;2023-08-08T09:02:16;3.65;;;2.28;;
64367;SDS011;50692;53.314;-6.300;2023-08-08T09:05:03;2.45;;;2.00;;
64367;SDS011;50692;53.314;-6.300;2023-08-08T09:07:50;3.92;;;2.30;;
64367;SDS011;50692;53.314;-6.300;2023-08-08T09:10:38;3.95;;;3.00;;
64367;SDS011;50692;53.314;-6.300;2023-08-08T09:13:38;4.65;;;2.33;;
64367;SDS011;50692;53.314;-6.300;2023-08-08T09:16:25;3.88;;;1.67;;
64367;SDS011;50692;53.314;-6.300;2023-08-08T09:19:11;2.20;;;1.70;;
64367;SDS011;50692;53.314;-6.300;2023-08-08T09:21:57;4.15;;;2.28;;
64367;SDS011;50692;53.314;-6.300;2023-08-08T09:24:43;3.20;;;1.77;;
64367;SDS011;50692;53.314;-6.300;2023-08-08T09:27:29;2.38;;;1.42;;
64367;SDS011;50692;53.314;-6.300;2023-08-08T09:30:15;3.13;;;1.80;;
64367;SDS011;50692;53.314;-6.300;2023-08-08T09:33:01;3.10;;;2.30;;
64367;SDS011;50692;53.314;-6.300;2023-08-08T09:35:47;2.97;;;2.25;;
64367;SDS011;50692;53.314;-6.300;2023-08-08T09:38:33;3.33;;;1.95;;
64367;SDS011;50692;53.314;-6.300;2023-08-08T09:41:22;4.97;;;1.90;;
64367;SDS011;50692;53.314;-6.300;2023-08-08T09:44:09;3.20;;;2.28;;
64367;SDS011;50692;53.314;-6.300;2023-08-08T09:46:55;2.40;;;1.92;;
64367;SDS011;50692;53.314;-6.300;2023-08-08T09:49:41;3.55;;;2.00;;
64367;SDS011;50692;53.314;-6.300;2023-08-08T09:52:28;2.22;;;1.70;;
64367;SDS011;50692;53.314;-6.300;2023-08-08T09:55:15;2.78;;;1.58;;
64367;SDS011;50692;53.314;-6.300;2023-08-08T09:58:01;2.85;;;1.63;;
64367;SDS011;50692;53.314;-6.300;2023-08-08T10:00:49;4.32;;;1.48;;
64367;SDS011;50692;53.314;-6.300;2023-08-08T10:03:35;1.90;;;1.38;;
64367;SDS011;50692;53.314;-6.300;2023-08-08T10:06:23;1.65;;;1.40;;
64367;SDS011;50692;53.314;-6.300;2023-08-08T10:09:09;2.80;;;1.80;;
64367;SDS011;50692;53.314;-6.300;2023-08-08T10:11:54;2.08;;;1.58;;
64367;SDS011;50692;53.314;-6.300;2023-08-08T10:14:42;2.05;;;1.58;;
64367;SDS011;50692;53.314;-6.300;2023-08-08T10:17:34;3.10;;;1.88;;
64367;SDS011;50692;53.314;-6.300;2023-08-08T10:20:20;2.42;;;1.80;;
64367;SDS011;50692;53.314;-6.300;2023-08-08T10:23:06;3.25;;;1.88;;
64367;SDS011;50692;53.314;-6.300;2023-08-08T10:25:52;2.67;;;1.83;;
64367;SDS011;50692;53.314;-6.300;2023-08-08T10:28:38;4.00;;;1.80;;
64367;SDS011;50692;53.314;-6.300;2023-08-08T10:31:24;2.88;;;1.70;;
64367;SDS011;50692;53.314;-6.300;2023-08-08T10:34:10;2.67;;;2.20;;
64367;SDS011;50692;53.314;-6.300;2023-08-08T10:36:57;3.60;;;1.88;;
64367;SDS011;50692;53.314;-6.300;2023-08-08T10:39:52;2.35;;;1.58;;
64367;SDS011;50692;53.314;-6.300;2023-08-08T10:42:43;2.83;;;1.70;;
64367;SDS011;50692;53.314;-6.300;2023-08-08T10:45:30;1.75;;;1.42;;
64367;SDS011;50692;53.314;-6.300;2023-08-08T10:48:16;2.97;;;1.70;;
64367;SDS011;50692;53.314;-6.300;2023-08-08T10:51:05;3.35;;;1.90;;
64367;SDS011;50692;53.314;-6.300;2023-08-08T10:53:51;2.42;;;1.50;;
64367;SDS011;50692;53.314;-6.300;2023-08-08T10:56:37;2.20;;;1.58;;
64367;SDS011;50692;53.314;-6.300;2023-08-08T10:59:24;3.05;;;1.70;;
64367;SDS011;50692;53.314;-6.300;2023-08-08T11:02:12;3.08;;;1.50;;
64367;SDS011;50692;53.314;-6.300;2023-08-08T11:04:58;2.75;;;1.60;;
64367;SDS011;50692;53.314;-6.300;2023-08-08T11:07:44;2.83;;;1.63;;
64367;SDS011;50692;53.314;-6.300;2023-08-08T11:10:37;3.92;;;2.05;;
64367;SDS011;50692;53.314;-6.300;2023-08-08T11:13:26;6.75;;;2.55;;
64367;SDS011;50692;53.314;-6.300;2023-08-08T11:16:14;2.38;;;1.50;;
64367;SDS011;50692;53.314;-6.300;2023-08-08T11:19:00;2.55;;;1.58;;
64367;SDS011;50692;53.314;-6.300;2023-08-08T11:21:46;4.10;;;1.70;;
64367;SDS011;50692;53.314;-6.300;2023-08-08T11:24:34;2.10;;;1.45;;
64367;SDS011;50692;53.314;-6.300;2023-08-08T11:27:21;4.07;;;1.90;;
64367;SDS011;50692;53.314;-6.300;2023-08-08T11:30:07;4.20;;;1.65;;
64367;SDS011;50692;53.314;-6.300;2023-08-08T11:32:53;1.92;;;1.75;;
64367;SDS011;50692;53.314;-6.300;2023-08-08T11:35:42;2.58;;;1.63;;
64367;SDS011;50692;53.314;-6.300;2023-08-08T11:38:31;3.80;;;1.73;;
64367;SDS011;50692;53.314;-6.300;2023-08-08T11:41:20;3.05;;;1.63;;
64367;SDS011;50692;53.314;-6.300;2023-08-08T11:44:08;3.80;;;2.10;;
64367;SDS011;50692;53.314;-6.300;2023-08-08T11:46:54;2.90;;;1.70;;
64367;SDS011;50692;53.314;-6.300;2023-08-08T11:49:40;2.55;;;1.50;;
64367;SDS011;50692;53.314;-6.300;2023-08-08T11:52:27;4.22;;;1.80;;
64367;SDS011;50692;53.314;-6.300;2023-08-08T11:55:13;2.60;;;1.90;;
64367;SDS011;50692;53.314;-6.300;2023-08-08T11:57:59;2.80;;;1.90;;
64367;SDS011;50692;53.314;-6.300;2023-08-08T12:00:45;3.83;;;1.60;;
64367;SDS011;50692;53.314;-6.300;2023-08-08T12:03:34;3.00;;;1.90;;
64367;SDS011;50692;53.314;-6.300;2023-08-08T12:06:27;2.88;;;1.60;;
64367;SDS011;50692;53.314;-6.300;2023-08-08T12:09:14;5.38;;;2.40;;
64367;SDS011;50692;53.314;-6.300;2023-08-08T12:12:01;2.65;;;1.80;;
64367;SDS011;50692;53.314;-6.300;2023-08-08T12:14:47;2.92;;;1.92;;
64367;SDS011;50692;53.314;-6.300;2023-08-08T12:17:33;3.20;;;1.90;;
64367;SDS011;50692;53.314;-6.300;2023-08-08T12:20:19;4.13;;;2.05;;
64367;SDS011;50692;53.314;-6.300;2023-08-08T12:23:05;3.50;;;2.40;;
64367;SDS011;50692;53.314;-6.300;2023-08-08T12:25:51;3.35;;;2.28;;
64367;SDS011;50692;53.314;-6.300;2023-08-08T12:28:37;3.30;;;2.55;;
64367;SDS011;50692;53.314;-6.300;2023-08-08T12:31:23;3.95;;;2.63;;
64367;SDS011;50692;53.314;-6.300;2023-08-08T12:34:09;3.78;;;2.75;;
64367;SDS011;50692;53.314;-6.300;2023-08-08T12:36:55;3.30;;;2.53;;
64367;SDS011;50692;53.314;-6.300;2023-08-08T12:39:41;4.32;;;2.72;;
64367;SDS011;50692;53.314;-6.300;2023-08-08T12:42:26;2.67;;;2.20;;
64367;SDS011;50692;53.314;-6.300;2023-08-08T12:45:12;4.45;;;2.92;;
64367;SDS011;50692;53.314;-6.300;2023-08-08T12:47:58;3.38;;;2.53;;
64367;SDS011;50692;53.314;-6.300;2023-08-08T12:50:44;5.78;;;2.38;;
64367;SDS011;50692;53.314;-6.300;2023-08-08T12:53:30;4.47;;;3.03;;
64367;SDS011;50692;53.314;-6.300;2023-08-08T12:56:16;3.78;;;2.30;;
64367;SDS011;50692;53.314;-6.300;2023-08-08T12:59:01;4.78;;;2.30;;
64367;SDS011;50692;53.314;-6.300;2023-08-08T13:01:48;3.42;;;2.17;;
64367;SDS011;50692;53.314;-6.300;2023-08-08T13:04:34;4.07;;;2.30;;
64367;SDS011;50692;53.314;-6.300;2023-08-08T13:07:19;2.33;;;2.08;;
64367;SDS011;50692;53.314;-6.300;2023-08-08T13:10:05;3.67;;;2.40;;
64367;SDS011;50692;53.314;-6.300;2023-08-08T13:12:52;2.58;;;1.83;;
64367;SDS011;50692;53.314;-6.300;2023-08-08T13:15:37;3.28;;;2.35;;
64367;SDS011;50692;53.314;-6.300;2023-08-08T13:18:23;2.38;;;1.70;;
64367;SDS011;50692;53.314;-6.300;2023-08-08T13:21:09;3.40;;;2.10;;
64367;SDS011;50692;53.314;-6.300;2023-08-08T13:23:55;4.53;;;1.90;;
64367;SDS011;50692;53.314;-6.300;2023-08-08T13:26:41;3.50;;;1.95;;
64367;SDS011;50692;53.314;-6.300;2023-08-08T13:29:27;2.67;;;1.85;;
64367;SDS011;50692;53.314;-6.300;2023-08-08T13:32:13;2.47;;;1.83;;
64367;SDS011;50692;53.314;-6.300;2023-08-08T13:34:59;3.40;;;1.95;;
64367;SDS011;50692;53.314;-6.300;2023-08-08T13:37:44;3.20;;;2.00;;
64367;SDS011;50692;53.314;-6.300;2023-08-08T13:40:35;3.22;;;1.65;;
64367;SDS011;50692;53.314;-6.300;2023-08-08T13:43:20;2.20;;;1.80;;
64367;SDS011;50692;53.314;-6.300;2023-08-08T13:46:06;3.08;;;2.03;;
64367;SDS011;50692;53.314;-6.300;2023-08-08T13:48:55;2.42;;;1.98;;
64367;SDS011;50692;53.314;-6.300;2023-08-08T13:51:40;3.85;;;2.30;;
64367;SDS011;50692;53.314;-6.300;2023-08-08T13:54:26;3.35;;;2.33;;
64367;SDS011;50692;53.314;-6.300;2023-08-08T13:57:12;2.30;;;1.98;;
64367;SDS011;50692;53.314;-6.300;2023-08-08T13:59:58;3.35;;;2.05;;
64367;SDS011;50692;53.314;-6.300;2023-08-08T14:02:44;3.40;;;2.30;;
64367;SDS011;50692;53.314;-6.300;2023-08-08T14:05:29;3.95;;;2.20;;
64367;SDS011;50692;53.314;-6.300;2023-08-08T14:08:16;3.33;;;2.05;;
64367;SDS011;50692;53.314;-6.300;2023-08-08T14:11:02;3.50;;;2.28;;
64367;SDS011;50692;53.314;-6.300;2023-08-08T14:13:48;4.15;;;2.60;;
64367;SDS011;50692;53.314;-6.300;2023-08-08T14:16:34;4.25;;;2.83;;
64367;SDS011;50692;53.314;-6.300;2023-08-08T14:19:19;3.67;;;2.17;;
64367;SDS011;50692;53.314;-6.300;2023-08-08T14:22:05;5.25;;;2.55;;
64367;SDS011;50692;53.314;-6.300;2023-08-08T14:24:51;3.55;;;2.50;;
64367;SDS011;50692;53.314;-6.300;2023-08-08T14:27:37;3.15;;;2.38;;
64367;SDS011;50692;53.314;-6.300;2023-08-08T14:30:23;3.50;;;2.10;;
64367;SDS011;50692;53.314;-6.300;2023-08-08T14:33:12;5.15;;;2.10;;
64367;SDS011;50692;53.314;-6.300;2023-08-08T14:35:58;4.65;;;2.45;;
64367;SDS011;50692;53.314;-6.300;2023-08-08T14:38:44;4.90;;;2.75;;
64367;SDS011;50692;53.314;-6.300;2023-08-08T14:41:30;4.45;;;2.38;;
64367;SDS011;50692;53.314;-6.300;2023-08-08T14:44:16;4.32;;;2.38;;
64367;SDS011;50692;53.314;-6.300;2023-08-08T14:47:02;4.15;;;2.63;;
64367;SDS011;50692;53.314;-6.300;2023-08-08T14:49:48;3.83;;;2.33;;
64367;SDS011;50692;53.314;-6.300;2023-08-08T14:52:36;4.07;;;2.50;;
64367;SDS011;50692;53.314;-6.300;2023-08-08T14:55:22;3.50;;;2.50;;
64367;SDS011;50692;53.314;-6.300;2023-08-08T14:58:08;3.67;;;2.55;;
64367;SDS011;50692;53.314;-6.300;2023-08-08T15:00:53;3.60;;;2.30;;
64367;SDS011;50692;53.314;-6.300;2023-08-08T15:03:40;2.67;;;2.20;;
64367;SDS011;50692;53.314;-6.300;2023-08-08T15:06:26;2.80;;;2.30;;
64367;SDS011;50692;53.314;-6.300;2023-08-08T15:09:12;3.20;;;2.10;;
64367;SDS011;50692;53.314;-6.300;2023-08-08T15:11:58;4.28;;;2.40;;
64367;SDS011;50692;53.314;-6.300;2023-08-08T15:14:44;4.05;;;3.65;;
64367;SDS011;50692;53.314;-6.300;2023-08-08T15:17:30;3.28;;;2.40;;
64367;SDS011;50692;53.314;-6.300;2023-08-08T15:20:16;3.00;;;2.10;;
64367;SDS011;50692;53.314;-6.300;2023-08-08T15:23:02;2.45;;;2.10;;
64367;SDS011;50692;53.314;-6.300;2023-08-08T15:25:47;3.35;;;2.08;;
64367;SDS011;50692;53.314;-6.300;2023-08-08T15:28:33;3.72;;;1.88;;
64367;SDS011;50692;53.314;-6.300;2023-08-08T15:31:19;3.63;;;1.80;;
64367;SDS011;50692;53.314;-6.300;2023-08-08T15:34:05;3.08;;;1.73;;
64367;SDS011;50692;53.314;-6.300;2023-08-08T15:36:51;2.40;;;1.90;;
64367;SDS011;50692;53.314;-6.300;2023-08-08T15:39:37;4.03;;;2.10;;
64367;SDS011;50692;53.314;-6.300;2023-08-08T15:42:24;3.90;;;2.05;;
64367;SDS011;50692;53.314;-6.300;2023-08-08T15:45:10;3.92;;;2.08;;
64367;SDS011;50692;53.314;-6.300;2023-08-08T15:47:58;2.42;;;1.52;;
64367;SDS011;50692;53.314;-6.300;2023-08-08T15:50:44;2.60;;;1.55;;
64367;SDS011;50692;53.314;-6.300;2023-08-08T15:53:30;2.35;;;1.92;;
64367;SDS011;50692;53.314;-6.300;2023-08-08T15:56:19;3.65;;;1.77;;
64367;SDS011;50692;53.314;-6.300;2023-08-08T15:59:05;4.63;;;2.08;;
64367;SDS011;50692;53.314;-6.300;2023-08-08T16:01:51;2.90;;;2.10;;
64367;SDS011;50692;53.314;-6.300;2023-08-08T16:04:37;2.53;;;1.90;;
64367;SDS011;50692;53.314;-6.300;2023-08-08T16:07:23;3.47;;;1.80;;
64367;SDS011;50692;53.314;-6.300;2023-08-08T16:10:11;3.42;;;1.88;;
64367;SDS011;50692;53.314;-6.300;2023-08-08T16:12:56;2.65;;;1.70;;
64367;SDS011;50692;53.314;-6.300;2023-08-08T16:15:42;2.72;;;1.65;;
64367;SDS011;50692;53.314;-6.300;2023-08-08T16:18:28;3.63;;;1.92;;
64367;SDS011;50692;53.314;-6.300;2023-08-08T16:21:16;2.72;;;1.60;;
64367;SDS011;50692;53.314;-6.300;2023-08-08T16:24:02;2.92;;;1.70;;
64367;SDS011;50692;53.314;-6.300;2023-08-08T16:26:48;2.45;;;1.70;;